sensor_id;sensor_type;location;lat;lon;timestamp;P1;durP1;ratioP1;P2;durP2;ratioP2
4089;SDS011;2059;48.538;12.146;2022-11-14T00:02:32;15.27;;;13.67;;
4089;SDS011;2059;48.538;12.146;2022-11-14T00:07:34;25.87;;;14.77;;
4089;SDS011;2059;48.538;12.146;2022-11-14T00:12:36;15.37;;;13.80;;
4089;SDS011;2059;48.538;12.146;2022-11-14T00:17:39;16.80;;;12.40;;
4089;SDS011;2059;48.538;12.146;2022-11-14T00:22:41;16.07;;;14.40;;
4089;SDS011;2059;48.538;12.146;2022-11-14T00:27:43;16.60;;;14.77;;
4089;SDS011;2059;48.538;12.146;2022-11-14T00:32:46;31.43;;;14.87;;
4089;SDS011;2059;48.538;12.146;2022-11-14T00:37:48;15.40;;;12.30;;
4089;SDS011;2059;48.538;12.146;2022-11-14T00:42:50;15.70;;;13.40;;
4089;SDS011;2059;48.538;12.146;2022-11-14T00:47:53;22.20;;;14.47;;
4089;SDS011;2059;48.538;12.146;2022-11-14T00:52:55;33.10;;;13.20;;
4089;SDS011;2059;48.538;12.146;2022-11-14T00:57:57;22.53;;;16.13;;
4089;SDS011;2059;48.538;12.146;2022-11-14T01:03:00;26.80;;;16.70;;
4089;SDS011;2059;48.538;12.146;2022-11-14T01:08:02;19.07;;;15.00;;
4089;SDS011;2059;48.538;12.146;2022-11-14T01:13:04;23.30;;;17.20;;
4089;SDS011;2059;48.538;12.146;2022-11-14T01:18:08;28.80;;;15.90;;
4089;SDS011;2059;48.538;12.146;2022-11-14T01:23:12;17.90;;;16.10;;
4089;SDS011;2059;48.538;12.146;2022-11-14T01:28:17;13.77;;;12.47;;
4089;SDS011;2059;48.538;12.146;2022-11-14T01:33:21;21.03;;;13.60;;
4089;SDS011;2059;48.538;12.146;2022-11-14T01:38:22;22.93;;;12.70;;
4089;SDS011;2059;48.538;12.146;2022-11-14T01:43:25;14.57;;;13.07;;
4089;SDS011;2059;48.538;12.146;2022-11-14T01:48:36;15.50;;;13.73;;
4089;SDS011;2059;48.538;12.146;2022-11-14T01:53:41;14.57;;;13.07;;
4089;SDS011;2059;48.538;12.146;2022-11-14T01:58:45;14.27;;;12.97;;
4089;SDS011;2059;48.538;12.146;2022-11-14T02:03:52;28.43;;;11.60;;
4089;SDS011;2059;48.538;12.146;2022-11-14T02:08:56;27.13;;;13.23;;
4089;SDS011;2059;48.538;12.146;2022-11-14T02:14:00;22.30;;;13.37;;
4089;SDS011;2059;48.538;12.146;2022-11-14T02:19:04;14.43;;;12.90;;
4089;SDS011;2059;48.538;12.146;2022-11-14T02:24:09;20.43;;;13.17;;
4089;SDS011;2059;48.538;12.146;2022-11-14T02:29:12;14.10;;;12.50;;
4089;SDS011;2059;48.538;12.146;2022-11-14T02:34:14;14.30;;;13.07;;
4089;SDS011;2059;48.538;12.146;2022-11-14T02:39:20;14.97;;;13.37;;
4089;SDS011;2059;48.538;12.146;2022-11-14T02:44:22;18.80;;;13.60;;
4089;SDS011;2059;48.538;12.146;2022-11-14T02:49:23;22.20;;;11.73;;
4089;SDS011;2059;48.538;12.146;2022-11-14T02:54:27;13.27;;;11.97;;
4089;SDS011;2059;48.538;12.146;2022-11-14T02:59:28;17.03;;;9.47;;
4089;SDS011;2059;48.538;12.146;2022-11-14T03:04:30;10.93;;;9.93;;
4089;SDS011;2059;48.538;12.146;2022-11-14T03:09:33;11.33;;;10.33;;
4089;SDS011;2059;48.538;12.146;2022-11-14T03:14:35;11.30;;;10.20;;
4089;SDS011;2059;48.538;12.146;2022-11-14T03:19:37;11.77;;;10.60;;
4089;SDS011;2059;48.538;12.146;2022-11-14T03:24:40;10.80;;;9.80;;
4089;SDS011;2059;48.538;12.146;2022-11-14T03:29:42;17.93;;;10.13;;
4089;SDS011;2059;48.538;12.146;2022-11-14T03:34:44;14.80;;;10.03;;
4089;SDS011;2059;48.538;12.146;2022-11-14T03:39:47;19.80;;;9.90;;
4089;SDS011;2059;48.538;12.146;2022-11-14T03:44:49;11.53;;;9.77;;
4089;SDS011;2059;48.538;12.146;2022-11-14T03:49:51;11.27;;;10.13;;
4089;SDS011;2059;48.538;12.146;2022-11-14T03:54:54;11.03;;;10.00;;
4089;SDS011;2059;48.538;12.146;2022-11-14T03:59:55;13.93;;;9.97;;
4089;SDS011;2059;48.538;12.146;2022-11-14T04:04:57;14.90;;;10.03;;
4089;SDS011;2059;48.538;12.146;2022-11-14T04:10:00;12.93;;;10.50;;
4089;SDS011;2059;48.538;12.146;2022-11-14T04:15:03;13.50;;;10.07;;
4089;SDS011;2059;48.538;12.146;2022-11-14T04:20:05;13.63;;;10.87;;
4089;SDS011;2059;48.538;12.146;2022-11-14T04:25:09;11.03;;;9.97;;
4089;SDS011;2059;48.538;12.146;2022-11-14T04:30:11;13.80;;;10.17;;
4089;SDS011;2059;48.538;12.146;2022-11-14T04:35:13;14.83;;;9.33;;
4089;SDS011;2059;48.538;12.146;2022-11-14T04:40:17;13.40;;;10.47;;
4089;SDS011;2059;48.538;12.146;2022-11-14T04:45:18;10.80;;;9.70;;
4089;SDS011;2059;48.538;12.146;2022-11-14T04:50:20;15.87;;;10.50;;
4089;SDS011;2059;48.538;12.146;2022-11-14T04:55:23;10.10;;;9.20;;
4089;SDS011;2059;48.538;12.146;2022-11-14T05:00:25;16.13;;;9.80;;
4089;SDS011;2059;48.538;12.146;2022-11-14T05:05:27;45.30;;;10.60;;
4089;SDS011;2059;48.538;12.146;2022-11-14T05:10:30;10.80;;;9.80;;
4089;SDS011;2059;48.538;12.146;2022-11-14T05:15:32;11.93;;;10.57;;
4089;SDS011;2059;48.538;12.146;2022-11-14T05:20:34;32.23;;;10.37;;
4089;SDS011;2059;48.538;12.146;2022-11-14T05:25:37;27.17;;;9.60;;
4089;SDS011;2059;48.538;12.146;2022-11-14T05:30:39;25.20;;;11.60;;
4089;SDS011;2059;48.538;12.146;2022-11-14T05:35:41;18.30;;;10.97;;
4089;SDS011;2059;48.538;12.146;2022-11-14T05:40:44;31.83;;;10.57;;
4089;SDS011;2059;48.538;12.146;2022-11-14T05:45:46;11.80;;;10.07;;
4089;SDS011;2059;48.538;12.146;2022-11-14T05:50:47;13.30;;;11.03;;
4089;SDS011;2059;48.538;12.146;2022-11-14T05:56:00;11.30;;;10.10;;
4089;SDS011;2059;48.538;12.146;2022-11-14T06:01:03;11.83;;;10.63;;
4089;SDS011;2059;48.538;12.146;2022-11-14T06:06:07;12.17;;;10.87;;
4089;SDS011;2059;48.538;12.146;2022-11-14T06:11:12;10.20;;;9.30;;
4089;SDS011;2059;48.538;12.146;2022-11-14T06:16:16;14.73;;;10.13;;
4089;SDS011;2059;48.538;12.146;2022-11-14T06:21:19;10.23;;;8.93;;
4089;SDS011;2059;48.538;12.146;2022-11-14T06:26:24;10.13;;;9.23;;
4089;SDS011;2059;48.538;12.146;2022-11-14T06:31:29;11.90;;;9.77;;
4089;SDS011;2059;48.538;12.146;2022-11-14T06:36:31;17.53;;;13.63;;
4089;SDS011;2059;48.538;12.146;2022-11-14T06:41:34;13.80;;;12.17;;
4089;SDS011;2059;48.538;12.146;2022-11-14T06:46:36;14.30;;;11.60;;
4089;SDS011;2059;48.538;12.146;2022-11-14T06:51:38;13.97;;;12.23;;
4089;SDS011;2059;48.538;12.146;2022-11-14T06:56:41;12.67;;;11.20;;
4089;SDS011;2059;48.538;12.146;2022-11-14T07:01:43;13.07;;;11.60;;
4089;SDS011;2059;48.538;12.146;2022-11-14T07:06:44;28.33;;;13.53;;
4089;SDS011;2059;48.538;12.146;2022-11-14T07:11:48;19.87;;;12.97;;
4089;SDS011;2059;48.538;12.146;2022-11-14T07:16:49;22.33;;;16.10;;
4089;SDS011;2059;48.538;12.146;2022-11-14T07:21:51;22.00;;;14.97;;
4089;SDS011;2059;48.538;12.146;2022-11-14T07:26:54;25.33;;;16.90;;
4089;SDS011;2059;48.538;12.146;2022-11-14T07:31:56;17.27;;;13.77;;
4089;SDS011;2059;48.538;12.146;2022-11-14T07:36:58;17.47;;;13.80;;
4089;SDS011;2059;48.538;12.146;2022-11-14T07:42:01;20.83;;;14.80;;
4089;SDS011;2059;48.538;12.146;2022-11-14T07:47:03;29.93;;;12.50;;
4089;SDS011;2059;48.538;12.146;2022-11-14T07:52:05;18.23;;;13.43;;
4089;SDS011;2059;48.538;12.146;2022-11-14T07:57:08;15.40;;;12.33;;
4089;SDS011;2059;48.538;12.146;2022-11-14T08:02:11;16.53;;;12.67;;
4089;SDS011;2059;48.538;12.146;2022-11-14T08:07:14;14.50;;;12.13;;
4089;SDS011;2059;48.538;12.146;2022-11-14T08:12:17;12.70;;;11.40;;
4089;SDS011;2059;48.538;12.146;2022-11-14T08:17:19;14.23;;;11.70;;
4089;SDS011;2059;48.538;12.146;2022-11-14T08:22:21;14.23;;;11.93;;
4089;SDS011;2059;48.538;12.146;2022-11-14T08:27:24;15.27;;;13.17;;
4089;SDS011;2059;48.538;12.146;2022-11-14T08:32:26;13.83;;;12.20;;
4089;SDS011;2059;48.538;12.146;2022-11-14T08:37:28;14.93;;;13.07;;
4089;SDS011;2059;48.538;12.146;2022-11-14T08:42:32;16.83;;;13.10;;
4089;SDS011;2059;48.538;12.146;2022-11-14T08:47:34;17.70;;;12.50;;
4089;SDS011;2059;48.538;12.146;2022-11-14T08:52:36;15.23;;;13.60;;
4089;SDS011;2059;48.538;12.146;2022-11-14T08:57:39;16.23;;;13.80;;
4089;SDS011;2059;48.538;12.146;2022-11-14T09:02:41;14.30;;;12.80;;
4089;SDS011;2059;48.538;12.146;2022-11-14T09:07:43;17.00;;;13.20;;
4089;SDS011;2059;48.538;12.146;2022-11-14T09:12:46;16.53;;;14.47;;
4089;SDS011;2059;48.538;12.146;2022-11-14T09:17:51;18.23;;;14.77;;
4089;SDS011;2059;48.538;12.146;2022-11-14T09:22:53;15.10;;;13.50;;
4089;SDS011;2059;48.538;12.146;2022-11-14T09:28:01;17.13;;;15.30;;
4089;SDS011;2059;48.538;12.146;2022-11-14T09:33:04;17.63;;;15.80;;
4089;SDS011;2059;48.538;12.146;2022-11-14T09:38:08;21.80;;;18.90;;
4089;SDS011;2059;48.538;12.146;2022-11-14T09:48:38;21.83;;;18.00;;
4089;SDS011;2059;48.538;12.146;2022-11-14T09:53:41;20.43;;;18.23;;
4089;SDS011;2059;48.538;12.146;2022-11-14T09:58:50;20.27;;;15.93;;
4089;SDS011;2059;48.538;12.146;2022-11-14T10:03:53;18.73;;;16.60;;
4089;SDS011;2059;48.538;12.146;2022-11-14T10:09:13;18.40;;;15.13;;
4089;SDS011;2059;48.538;12.146;2022-11-14T10:14:48;17.63;;;14.77;;
4089;SDS011;2059;48.538;12.146;2022-11-14T10:20:08;20.90;;;18.70;;
4089;SDS011;2059;48.538;12.146;2022-11-14T10:25:20;19.93;;;15.73;;
4089;SDS011;2059;48.538;12.146;2022-11-14T10:30:27;20.40;;;18.20;;
4089;SDS011;2059;48.538;12.146;2022-11-14T10:35:36;16.67;;;14.80;;
4089;SDS011;2059;48.538;12.146;2022-11-14T10:40:43;16.80;;;15.00;;
4089;SDS011;2059;48.538;12.146;2022-11-14T10:45:49;16.13;;;14.50;;
4089;SDS011;2059;48.538;12.146;2022-11-14T10:50:55;21.80;;;16.30;;
4089;SDS011;2059;48.538;12.146;2022-11-14T10:55:59;18.27;;;16.13;;
4089;SDS011;2059;48.538;12.146;2022-11-14T11:06:35;17.47;;;15.53;;
4089;SDS011;2059;48.538;12.146;2022-11-14T11:11:37;20.30;;;16.30;;
4089;SDS011;2059;48.538;12.146;2022-11-14T11:16:43;19.83;;;15.97;;
4089;SDS011;2059;48.538;12.146;2022-11-14T11:21:47;18.90;;;14.43;;
4089;SDS011;2059;48.538;12.146;2022-11-14T11:26:56;16.00;;;14.33;;
4089;SDS011;2059;48.538;12.146;2022-11-14T11:32:22;18.10;;;16.20;;
4089;SDS011;2059;48.538;12.146;2022-11-14T11:37:26;17.70;;;15.80;;
4089;SDS011;2059;48.538;12.146;2022-11-14T11:42:32;19.23;;;15.60;;
4089;SDS011;2059;48.538;12.146;2022-11-14T11:47:39;17.80;;;15.97;;
4089;SDS011;2059;48.538;12.146;2022-11-14T11:52:44;15.53;;;13.93;;
4089;SDS011;2059;48.538;12.146;2022-11-14T11:57:55;16.20;;;13.30;;
4089;SDS011;2059;48.538;12.146;2022-11-14T12:03:03;17.47;;;15.30;;
4089;SDS011;2059;48.538;12.146;2022-11-14T12:08:11;23.13;;;18.80;;
4089;SDS011;2059;48.538;12.146;2022-11-14T12:13:24;21.77;;;19.57;;
4089;SDS011;2059;48.538;12.146;2022-11-14T12:24:40;15.80;;;14.03;;
4089;SDS011;2059;48.538;12.146;2022-11-14T12:30:10;13.83;;;12.40;;
4089;SDS011;2059;48.538;12.146;2022-11-14T12:35:17;14.17;;;12.77;;
4089;SDS011;2059;48.538;12.146;2022-11-14T12:40:22;17.27;;;13.20;;
4089;SDS011;2059;48.538;12.146;2022-11-14T12:50:59;17.90;;;15.10;;
4089;SDS011;2059;48.538;12.146;2022-11-14T12:56:05;17.70;;;13.50;;
4089;SDS011;2059;48.538;12.146;2022-11-14T13:01:36;23.30;;;13.07;;
4089;SDS011;2059;48.538;12.146;2022-11-14T13:06:51;13.60;;;12.37;;
4089;SDS011;2059;48.538;12.146;2022-11-14T13:12:24;11.60;;;10.50;;
4089;SDS011;2059;48.538;12.146;2022-11-14T13:18:01;12.10;;;10.90;;
4089;SDS011;2059;48.538;12.146;2022-11-14T13:28:56;13.80;;;11.30;;
4089;SDS011;2059;48.538;12.146;2022-11-14T13:33:59;11.40;;;10.30;;
4089;SDS011;2059;48.538;12.146;2022-11-14T13:39:23;11.03;;;10.03;;
4089;SDS011;2059;48.538;12.146;2022-11-14T13:44:47;11.30;;;9.80;;
4089;SDS011;2059;48.538;12.146;2022-11-14T13:50:03;10.40;;;9.50;;
4089;SDS011;2059;48.538;12.146;2022-11-14T13:55:16;15.50;;;10.00;;
4089;SDS011;2059;48.538;12.146;2022-11-14T14:00:20;10.20;;;9.20;;
4089;SDS011;2059;48.538;12.146;2022-11-14T14:05:33;9.60;;;8.80;;
4089;SDS011;2059;48.538;12.146;2022-11-14T14:10:50;13.00;;;11.70;;
4089;SDS011;2059;48.538;12.146;2022-11-14T14:16:04;11.37;;;10.30;;
4089;SDS011;2059;48.538;12.146;2022-11-14T14:21:15;16.67;;;11.67;;
4089;SDS011;2059;48.538;12.146;2022-11-14T14:26:30;13.10;;;11.53;;
4089;SDS011;2059;48.538;12.146;2022-11-14T14:31:38;11.87;;;10.63;;
4089;SDS011;2059;48.538;12.146;2022-11-14T14:36:47;10.20;;;9.27;;
4089;SDS011;2059;48.538;12.146;2022-11-14T14:41:51;8.93;;;8.13;;
4089;SDS011;2059;48.538;12.146;2022-11-14T14:46:55;8.70;;;8.00;;
4089;SDS011;2059;48.538;12.146;2022-11-14T14:51:57;9.03;;;8.27;;
4089;SDS011;2059;48.538;12.146;2022-11-14T14:57:01;18.13;;;11.70;;
4089;SDS011;2059;48.538;12.146;2022-11-14T15:02:03;10.10;;;8.27;;
4089;SDS011;2059;48.538;12.146;2022-11-14T15:07:17;12.57;;;9.80;;
4089;SDS011;2059;48.538;12.146;2022-11-14T15:12:23;13.30;;;12.10;;
4089;SDS011;2059;48.538;12.146;2022-11-14T15:17:26;10.00;;;8.93;;
4089;SDS011;2059;48.538;12.146;2022-11-14T15:22:29;10.17;;;8.33;;
4089;SDS011;2059;48.538;12.146;2022-11-14T15:27:34;13.40;;;8.47;;
4089;SDS011;2059;48.538;12.146;2022-11-14T15:32:46;10.13;;;9.03;;
4089;SDS011;2059;48.538;12.146;2022-11-14T15:37:58;10.90;;;9.70;;
4089;SDS011;2059;48.538;12.146;2022-11-14T15:48:48;14.63;;;12.60;;
4089;SDS011;2059;48.538;12.146;2022-11-14T15:53:50;62.73;;;34.80;;
4089;SDS011;2059;48.538;12.146;2022-11-14T15:58:54;49.13;;;28.90;;
4089;SDS011;2059;48.538;12.146;2022-11-14T16:03:56;84.40;;;31.10;;
4089;SDS011;2059;48.538;12.146;2022-11-14T16:09:00;114.43;;;45.70;;
4089;SDS011;2059;48.538;12.146;2022-11-14T16:14:04;56.87;;;32.40;;
4089;SDS011;2059;48.538;12.146;2022-11-14T16:19:06;34.70;;;20.70;;
4089;SDS011;2059;48.538;12.146;2022-11-14T16:24:10;32.70;;;22.20;;
4089;SDS011;2059;48.538;12.146;2022-11-14T16:29:18;28.80;;;21.73;;
4089;SDS011;2059;48.538;12.146;2022-11-14T16:34:21;28.20;;;19.97;;
4089;SDS011;2059;48.538;12.146;2022-11-14T16:39:24;27.37;;;21.63;;
4089;SDS011;2059;48.538;12.146;2022-11-14T16:44:27;27.50;;;19.13;;
4089;SDS011;2059;48.538;12.146;2022-11-14T16:49:29;28.00;;;19.57;;
4089;SDS011;2059;48.538;12.146;2022-11-14T16:54:31;23.60;;;18.50;;
4089;SDS011;2059;48.538;12.146;2022-11-14T16:59:34;24.60;;;20.83;;
4089;SDS011;2059;48.538;12.146;2022-11-14T17:04:36;28.90;;;18.47;;
4089;SDS011;2059;48.538;12.146;2022-11-14T17:09:38;32.67;;;21.80;;
4089;SDS011;2059;48.538;12.146;2022-11-14T17:14:41;35.07;;;23.90;;
4089;SDS011;2059;48.538;12.146;2022-11-14T17:19:43;29.10;;;20.20;;
4089;SDS011;2059;48.538;12.146;2022-11-14T17:24:45;39.80;;;26.80;;
4089;SDS011;2059;48.538;12.146;2022-11-14T17:29:48;31.50;;;22.97;;
4089;SDS011;2059;48.538;12.146;2022-11-14T17:34:51;28.93;;;20.73;;
4089;SDS011;2059;48.538;12.146;2022-11-14T17:39:52;22.97;;;18.20;;
4089;SDS011;2059;48.538;12.146;2022-11-14T17:44:56;26.27;;;20.30;;
4089;SDS011;2059;48.538;12.146;2022-11-14T17:49:59;30.50;;;23.10;;
4089;SDS011;2059;48.538;12.146;2022-11-14T17:55:02;39.67;;;27.30;;
4089;SDS011;2059;48.538;12.146;2022-11-14T18:00:06;33.83;;;22.70;;
4089;SDS011;2059;48.538;12.146;2022-11-14T18:05:09;26.83;;;23.20;;
4089;SDS011;2059;48.538;12.146;2022-11-14T18:10:11;21.37;;;17.50;;
4089;SDS011;2059;48.538;12.146;2022-11-14T18:15:14;21.17;;;14.03;;
4089;SDS011;2059;48.538;12.146;2022-11-14T18:20:16;22.30;;;17.00;;
4089;SDS011;2059;48.538;12.146;2022-11-14T18:25:18;21.30;;;16.97;;
4089;SDS011;2059;48.538;12.146;2022-11-14T18:30:21;26.07;;;20.67;;
4089;SDS011;2059;48.538;12.146;2022-11-14T18:35:23;25.30;;;18.80;;
4089;SDS011;2059;48.538;12.146;2022-11-14T18:40:25;28.07;;;19.50;;
4089;SDS011;2059;48.538;12.146;2022-11-14T18:45:28;23.10;;;18.30;;
4089;SDS011;2059;48.538;12.146;2022-11-14T18:50:30;31.07;;;22.03;;
4089;SDS011;2059;48.538;12.146;2022-11-14T18:55:32;26.27;;;20.97;;
4089;SDS011;2059;48.538;12.146;2022-11-14T19:00:39;23.70;;;19.10;;
4089;SDS011;2059;48.538;12.146;2022-11-14T19:05:41;23.90;;;18.60;;
4089;SDS011;2059;48.538;12.146;2022-11-14T19:10:43;25.60;;;19.47;;
4089;SDS011;2059;48.538;12.146;2022-11-14T19:15:46;25.63;;;19.40;;
4089;SDS011;2059;48.538;12.146;2022-11-14T19:20:54;27.30;;;19.87;;
4089;SDS011;2059;48.538;12.146;2022-11-14T19:25:57;23.13;;;17.20;;
4089;SDS011;2059;48.538;12.146;2022-11-14T19:31:02;28.27;;;20.07;;
4089;SDS011;2059;48.538;12.146;2022-11-14T19:36:05;28.07;;;21.10;;
4089;SDS011;2059;48.538;12.146;2022-11-14T19:41:08;27.13;;;21.20;;
4089;SDS011;2059;48.538;12.146;2022-11-14T19:46:15;28.17;;;21.13;;
4089;SDS011;2059;48.538;12.146;2022-11-14T19:51:17;36.63;;;24.37;;
4089;SDS011;2059;48.538;12.146;2022-11-14T19:56:18;35.77;;;25.77;;
4089;SDS011;2059;48.538;12.146;2022-11-14T20:01:24;34.70;;;25.23;;
4089;SDS011;2059;48.538;12.146;2022-11-14T20:06:27;29.53;;;22.20;;
4089;SDS011;2059;48.538;12.146;2022-11-14T20:11:33;28.03;;;22.20;;
4089;SDS011;2059;48.538;12.146;2022-11-14T20:16:36;28.57;;;21.47;;
4089;SDS011;2059;48.538;12.146;2022-11-14T20:21:38;30.30;;;22.97;;
4089;SDS011;2059;48.538;12.146;2022-11-14T20:26:40;40.70;;;29.13;;
4089;SDS011;2059;48.538;12.146;2022-11-14T20:31:43;29.63;;;21.93;;
4089;SDS011;2059;48.538;12.146;2022-11-14T20:36:45;30.27;;;23.20;;
4089;SDS011;2059;48.538;12.146;2022-11-14T20:41:47;27.37;;;22.00;;
4089;SDS011;2059;48.538;12.146;2022-11-14T20:46:50;32.43;;;23.10;;
4089;SDS011;2059;48.538;12.146;2022-11-14T20:51:54;31.87;;;23.53;;
4089;SDS011;2059;48.538;12.146;2022-11-14T20:56:56;41.93;;;27.70;;
4089;SDS011;2059;48.538;12.146;2022-11-14T21:01:59;33.30;;;26.00;;
4089;SDS011;2059;48.538;12.146;2022-11-14T21:07:01;41.53;;;28.10;;
4089;SDS011;2059;48.538;12.146;2022-11-14T21:12:03;28.00;;;20.40;;
4089;SDS011;2059;48.538;12.146;2022-11-14T21:17:07;23.40;;;18.87;;
4089;SDS011;2059;48.538;12.146;2022-11-14T21:22:09;27.50;;;18.33;;
4089;SDS011;2059;48.538;12.146;2022-11-14T21:27:12;23.17;;;17.90;;
4089;SDS011;2059;48.538;12.146;2022-11-14T21:32:15;23.87;;;18.33;;
4089;SDS011;2059;48.538;12.146;2022-11-14T21:37:17;25.93;;;18.97;;
4089;SDS011;2059;48.538;12.146;2022-11-14T21:42:19;25.60;;;20.10;;
4089;SDS011;2059;48.538;12.146;2022-11-14T21:47:22;25.63;;;19.50;;
4089;SDS011;2059;48.538;12.146;2022-11-14T21:52:24;26.63;;;20.43;;
4089;SDS011;2059;48.538;12.146;2022-11-14T21:57:26;24.50;;;19.50;;
4089;SDS011;2059;48.538;12.146;2022-11-14T22:02:29;24.20;;;18.70;;
4089;SDS011;2059;48.538;12.146;2022-11-14T22:07:48;26.20;;;19.93;;
4089;SDS011;2059;48.538;12.146;2022-11-14T22:12:50;24.67;;;18.83;;
4089;SDS011;2059;48.538;12.146;2022-11-14T22:17:54;26.20;;;18.83;;
4089;SDS011;2059;48.538;12.146;2022-11-14T22:22:55;27.80;;;19.17;;
4089;SDS011;2059;48.538;12.146;2022-11-14T22:27:57;31.83;;;21.90;;
4089;SDS011;2059;48.538;12.146;2022-11-14T22:33:00;28.13;;;19.50;;
4089;SDS011;2059;48.538;12.146;2022-11-14T22:38:02;21.87;;;18.10;;
4089;SDS011;2059;48.538;12.146;2022-11-14T22:43:04;24.47;;;16.87;;
4089;SDS011;2059;48.538;12.146;2022-11-14T22:48:07;24.10;;;18.50;;
4089;SDS011;2059;48.538;12.146;2022-11-14T22:53:09;22.53;;;18.80;;
4089;SDS011;2059;48.538;12.146;2022-11-14T22:58:11;25.73;;;19.07;;
4089;SDS011;2059;48.538;12.146;2022-11-14T23:03:15;26.50;;;19.67;;
4089;SDS011;2059;48.538;12.146;2022-11-14T23:08:19;28.67;;;19.83;;
4089;SDS011;2059;48.538;12.146;2022-11-14T23:13:21;28.77;;;19.40;;
4089;SDS011;2059;48.538;12.146;2022-11-14T23:18:24;24.47;;;19.40;;
4089;SDS011;2059;48.538;12.146;2022-11-14T23:23:26;32.17;;;21.17;;
4089;SDS011;2059;48.538;12.146;2022-11-14T23:28:28;26.13;;;18.40;;
4089;SDS011;2059;48.538;12.146;2022-11-14T23:33:31;23.27;;;18.10;;
4089;SDS011;2059;48.538;12.146;2022-11-14T23:38:33;25.60;;;17.60;;
4089;SDS011;2059;48.538;12.146;2022-11-14T23:43:35;29.80;;;18.70;;
4089;SDS011;2059;48.538;12.146;2022-11-14T23:48:38;23.33;;;17.77;;
4089;SDS011;2059;48.538;12.146;2022-11-14T23:53:40;25.37;;;18.90;;
4089;SDS011;2059;48.538;12.146;2022-11-14T23:58:42;22.00;;;15.20;;
